sensor_id;sensor_type;location;lat;lon;timestamp;P1;durP1;ratioP1;P2;durP2;ratioP2
85769;SDS011;76210;41.986;21.462;2024-03-23T00:55:47;38.15;;;21.98;;
85769;SDS011;76210;41.986;21.462;2024-03-23T00:58:13;33.92;;;19.98;;
85769;SDS011;76210;41.986;21.462;2024-03-23T01:00:38;57.70;;;32.00;;
85769;SDS011;76210;41.986;21.462;2024-03-23T01:03:03;49.95;;;28.15;;
85769;SDS011;76210;41.986;21.462;2024-03-23T01:05:29;37.55;;;22.23;;
85769;SDS011;76210;41.986;21.462;2024-03-23T01:07:54;50.80;;;29.23;;
85769;SDS011;76210;41.986;21.462;2024-03-23T01:10:19;42.50;;;25.90;;
85769;SDS011;76210;41.986;21.462;2024-03-23T01:12:45;53.55;;;29.35;;
85769;SDS011;76210;41.986;21.462;2024-03-23T01:15:11;39.20;;;22.85;;
85769;SDS011;76210;41.986;21.462;2024-03-23T01:17:36;48.15;;;28.15;;
85769;SDS011;76210;41.986;21.462;2024-03-23T01:20:01;43.80;;;26.90;;
85769;SDS011;76210;41.986;21.462;2024-03-23T01:22:27;46.00;;;26.25;;
85769;SDS011;76210;41.986;21.462;2024-03-23T01:24:53;34.35;;;21.98;;
85769;SDS011;76210;41.986;21.462;2024-03-23T01:27:18;47.63;;;25.55;;
85769;SDS011;76210;41.986;21.462;2024-03-23T01:29:43;46.90;;;26.85;;
85769;SDS011;76210;41.986;21.462;2024-03-23T01:32:09;29.85;;;19.42;;
85769;SDS011;76210;41.986;21.462;2024-03-23T01:34:34;44.92;;;25.23;;
85769;SDS011;76210;41.986;21.462;2024-03-23T01:36:59;40.03;;;24.33;;
85769;SDS011;76210;41.986;21.462;2024-03-23T01:39:25;38.75;;;21.90;;
85769;SDS011;76210;41.986;21.462;2024-03-23T01:41:50;35.97;;;20.75;;
85769;SDS011;76210;41.986;21.462;2024-03-23T01:44:16;26.63;;;17.05;;
85769;SDS011;76210;41.986;21.462;2024-03-23T01:46:42;33.45;;;19.80;;
85769;SDS011;76210;41.986;21.462;2024-03-23T01:49:08;36.97;;;21.40;;
85769;SDS011;76210;41.986;21.462;2024-03-23T01:51:33;36.53;;;21.25;;
85769;SDS011;76210;41.986;21.462;2024-03-23T01:54:00;32.78;;;20.15;;
85769;SDS011;76210;41.986;21.462;2024-03-23T01:56:28;37.38;;;21.60;;
85769;SDS011;76210;41.986;21.462;2024-03-23T01:58:54;35.38;;;19.70;;
85769;SDS011;76210;41.986;21.462;2024-03-23T02:01:19;30.52;;;19.48;;
85769;SDS011;76210;41.986;21.462;2024-03-23T02:03:44;45.00;;;23.95;;
85769;SDS011;76210;41.986;21.462;2024-03-23T02:06:09;31.20;;;19.85;;
85769;SDS011;76210;41.986;21.462;2024-03-23T02:08:35;32.17;;;19.27;;
85769;SDS011;76210;41.986;21.462;2024-03-23T02:11:00;32.20;;;19.00;;
85769;SDS011;76210;41.986;21.462;2024-03-23T02:13:25;31.30;;;18.20;;
85769;SDS011;76210;41.986;21.462;2024-03-23T02:15:51;32.03;;;19.98;;
85769;SDS011;76210;41.986;21.462;2024-03-23T02:18:17;29.98;;;16.42;;
85769;SDS011;76210;41.986;21.462;2024-03-23T02:20:42;32.67;;;19.83;;
85769;SDS011;76210;41.986;21.462;2024-03-23T02:23:14;30.50;;;17.73;;
85769;SDS011;76210;41.986;21.462;2024-03-23T02:25:39;27.98;;;16.33;;
85769;SDS011;76210;41.986;21.462;2024-03-23T02:28:05;25.42;;;16.38;;
85769;SDS011;76210;41.986;21.462;2024-03-23T02:30:30;21.42;;;14.55;;
85769;SDS011;76210;41.986;21.462;2024-03-23T02:32:55;23.77;;;14.63;;
85769;SDS011;76210;41.986;21.462;2024-03-23T02:35:21;24.23;;;14.15;;
85769;SDS011;76210;41.986;21.462;2024-03-23T02:37:46;26.30;;;16.58;;
85769;SDS011;76210;41.986;21.462;2024-03-23T02:40:12;21.65;;;14.10;;
85769;SDS011;76210;41.986;21.462;2024-03-23T02:42:37;21.85;;;14.48;;
85769;SDS011;76210;41.986;21.462;2024-03-23T02:45:02;25.98;;;15.70;;
85769;SDS011;76210;41.986;21.462;2024-03-23T02:47:30;20.65;;;13.88;;
85769;SDS011;76210;41.986;21.462;2024-03-23T02:49:55;23.45;;;14.60;;
85769;SDS011;76210;41.986;21.462;2024-03-23T02:52:20;22.15;;;14.30;;
85769;SDS011;76210;41.986;21.462;2024-03-23T02:54:45;22.15;;;13.48;;
85769;SDS011;76210;41.986;21.462;2024-03-23T02:57:11;25.08;;;14.98;;
85769;SDS011;76210;41.986;21.462;2024-03-23T02:59:36;26.40;;;15.48;;
85769;SDS011;76210;41.986;21.462;2024-03-23T03:02:01;23.15;;;14.05;;
85769;SDS011;76210;41.986;21.462;2024-03-23T03:04:29;25.15;;;15.20;;
85769;SDS011;76210;41.986;21.462;2024-03-23T03:06:54;25.80;;;15.25;;
85769;SDS011;76210;41.986;21.462;2024-03-23T03:09:20;28.50;;;15.48;;
85769;SDS011;76210;41.986;21.462;2024-03-23T03:11:46;32.08;;;14.25;;
85769;SDS011;76210;41.986;21.462;2024-03-23T03:14:11;21.85;;;14.48;;
85769;SDS011;76210;41.986;21.462;2024-03-23T03:16:37;25.67;;;16.08;;
85769;SDS011;76210;41.986;21.462;2024-03-23T03:19:02;22.55;;;14.45;;
85769;SDS011;76210;41.986;21.462;2024-03-23T03:21:27;21.77;;;14.07;;
85769;SDS011;76210;41.986;21.462;2024-03-23T03:23:53;26.42;;;14.63;;
85769;SDS011;76210;41.986;21.462;2024-03-23T03:26:19;26.75;;;14.27;;
85769;SDS011;76210;41.986;21.462;2024-03-23T03:28:44;25.27;;;15.20;;
85769;SDS011;76210;41.986;21.462;2024-03-23T03:31:14;27.77;;;15.30;;
85769;SDS011;76210;41.986;21.462;2024-03-23T03:33:39;22.73;;;14.52;;
85769;SDS011;76210;41.986;21.462;2024-03-23T03:36:04;24.38;;;13.73;;
85769;SDS011;76210;41.986;21.462;2024-03-23T03:38:30;24.02;;;13.82;;
85769;SDS011;76210;41.986;21.462;2024-03-23T03:40:55;24.25;;;14.45;;
85769;SDS011;76210;41.986;21.462;2024-03-23T03:43:20;21.58;;;13.98;;
85769;SDS011;76210;41.986;21.462;2024-03-23T03:45:55;25.17;;;15.85;;
85769;SDS011;76210;41.986;21.462;2024-03-23T03:48:21;21.50;;;14.23;;
85769;SDS011;76210;41.986;21.462;2024-03-23T03:50:46;23.60;;;14.45;;
85769;SDS011;76210;41.986;21.462;2024-03-23T03:53:11;24.00;;;14.32;;
85769;SDS011;76210;41.986;21.462;2024-03-23T03:55:36;25.05;;;13.85;;
85769;SDS011;76210;41.986;21.462;2024-03-23T03:58:02;23.23;;;12.52;;
85769;SDS011;76210;41.986;21.462;2024-03-23T04:00:27;23.63;;;13.93;;
85769;SDS011;76210;41.986;21.462;2024-03-23T04:02:52;22.75;;;13.35;;
85769;SDS011;76210;41.986;21.462;2024-03-23T04:05:18;21.52;;;13.77;;
85769;SDS011;76210;41.986;21.462;2024-03-23T04:07:44;26.95;;;15.48;;
85769;SDS011;76210;41.986;21.462;2024-03-23T04:10:09;22.25;;;13.45;;
85769;SDS011;76210;41.986;21.462;2024-03-23T04:12:35;20.75;;;12.65;;
85769;SDS011;76210;41.986;21.462;2024-03-23T04:15:00;22.48;;;13.57;;
85769;SDS011;76210;41.986;21.462;2024-03-23T04:17:28;23.27;;;14.63;;
85769;SDS011;76210;41.986;21.462;2024-03-23T04:19:57;26.00;;;15.90;;
85769;SDS011;76210;41.986;21.462;2024-03-23T04:22:22;28.25;;;15.70;;
85769;SDS011;76210;41.986;21.462;2024-03-23T04:24:49;29.65;;;17.70;;
85769;SDS011;76210;41.986;21.462;2024-03-23T04:27:14;29.48;;;16.63;;
85769;SDS011;76210;41.986;21.462;2024-03-23T04:29:39;29.25;;;16.17;;
85769;SDS011;76210;41.986;21.462;2024-03-23T04:32:05;26.20;;;15.40;;
85769;SDS011;76210;41.986;21.462;2024-03-23T04:34:30;29.90;;;17.55;;
85769;SDS011;76210;41.986;21.462;2024-03-23T04:36:57;30.38;;;16.45;;
85769;SDS011;76210;41.986;21.462;2024-03-23T04:39:23;32.35;;;16.77;;
85769;SDS011;76210;41.986;21.462;2024-03-23T04:41:48;29.75;;;16.50;;
85769;SDS011;76210;41.986;21.462;2024-03-23T04:44:13;28.53;;;17.20;;
85769;SDS011;76210;41.986;21.462;2024-03-23T04:46:39;27.77;;;17.20;;
85769;SDS011;76210;41.986;21.462;2024-03-23T04:49:04;29.98;;;16.90;;
85769;SDS011;76210;41.986;21.462;2024-03-23T04:51:34;28.88;;;17.13;;
85769;SDS011;76210;41.986;21.462;2024-03-23T04:54:00;29.58;;;17.13;;
85769;SDS011;76210;41.986;21.462;2024-03-23T04:56:25;28.95;;;17.02;;
85769;SDS011;76210;41.986;21.462;2024-03-23T04:58:50;31.58;;;17.80;;
85769;SDS011;76210;41.986;21.462;2024-03-23T05:01:16;27.98;;;16.67;;
85769;SDS011;76210;41.986;21.462;2024-03-23T05:03:41;29.38;;;17.58;;
85769;SDS011;76210;41.986;21.462;2024-03-23T05:06:06;34.42;;;19.48;;
85769;SDS011;76210;41.986;21.462;2024-03-23T05:08:32;28.50;;;17.08;;
85769;SDS011;76210;41.986;21.462;2024-03-23T05:10:57;33.75;;;18.17;;
85769;SDS011;76210;41.986;21.462;2024-03-23T05:13:22;33.03;;;18.00;;
85769;SDS011;76210;41.986;21.462;2024-03-23T05:15:52;31.60;;;17.42;;
85769;SDS011;76210;41.986;21.462;2024-03-23T05:18:17;29.73;;;18.65;;
85769;SDS011;76210;41.986;21.462;2024-03-23T05:20:42;32.20;;;18.88;;
85769;SDS011;76210;41.986;21.462;2024-03-23T05:23:09;31.20;;;18.75;;
85769;SDS011;76210;41.986;21.462;2024-03-23T05:25:34;36.80;;;19.48;;
85769;SDS011;76210;41.986;21.462;2024-03-23T05:27:59;31.90;;;18.92;;
85769;SDS011;76210;41.986;21.462;2024-03-23T05:30:25;33.20;;;19.40;;
85769;SDS011;76210;41.986;21.462;2024-03-23T05:32:50;34.17;;;19.10;;
85769;SDS011;76210;41.986;21.462;2024-03-23T05:35:15;34.97;;;19.83;;
85769;SDS011;76210;41.986;21.462;2024-03-23T05:37:40;30.92;;;19.27;;
85769;SDS011;76210;41.986;21.462;2024-03-23T05:40:06;31.40;;;18.88;;
85769;SDS011;76210;41.986;21.462;2024-03-23T05:42:33;29.48;;;17.30;;
85769;SDS011;76210;41.986;21.462;2024-03-23T05:44:58;30.52;;;18.38;;
85769;SDS011;76210;41.986;21.462;2024-03-23T05:47:24;27.88;;;17.05;;
85769;SDS011;76210;41.986;21.462;2024-03-23T05:49:49;30.45;;;18.42;;
85769;SDS011;76210;41.986;21.462;2024-03-23T05:52:16;29.55;;;18.98;;
85769;SDS011;76210;41.986;21.462;2024-03-23T05:54:42;27.08;;;18.15;;
85769;SDS011;76210;41.986;21.462;2024-03-23T05:57:08;30.48;;;19.58;;
85769;SDS011;76210;41.986;21.462;2024-03-23T05:59:34;27.25;;;18.33;;
85769;SDS011;76210;41.986;21.462;2024-03-23T06:01:59;34.67;;;19.92;;
85769;SDS011;76210;41.986;21.462;2024-03-23T06:04:24;28.13;;;18.23;;
85769;SDS011;76210;41.986;21.462;2024-03-23T06:06:50;29.83;;;17.80;;
85769;SDS011;76210;41.986;21.462;2024-03-23T06:09:17;27.65;;;18.63;;
85769;SDS011;76210;41.986;21.462;2024-03-23T06:11:42;29.65;;;18.23;;
85769;SDS011;76210;41.986;21.462;2024-03-23T06:14:07;26.38;;;18.15;;
85769;SDS011;76210;41.986;21.462;2024-03-23T06:16:33;28.05;;;19.38;;
85769;SDS011;76210;41.986;21.462;2024-03-23T06:18:58;29.63;;;19.83;;
85769;SDS011;76210;41.986;21.462;2024-03-23T06:21:23;28.13;;;18.85;;
85769;SDS011;76210;41.986;21.462;2024-03-23T06:23:51;31.88;;;19.67;;
85769;SDS011;76210;41.986;21.462;2024-03-23T06:26:19;28.00;;;19.02;;
85769;SDS011;76210;41.986;21.462;2024-03-23T06:28:45;31.17;;;20.17;;
85769;SDS011;76210;41.986;21.462;2024-03-23T06:31:11;29.33;;;19.92;;
85769;SDS011;76210;41.986;21.462;2024-03-23T06:33:36;28.63;;;19.88;;
85769;SDS011;76210;41.986;21.462;2024-03-23T06:36:01;31.13;;;19.73;;
85769;SDS011;76210;41.986;21.462;2024-03-23T06:38:28;29.85;;;20.52;;
85769;SDS011;76210;41.986;21.462;2024-03-23T06:40:53;29.13;;;20.88;;
85769;SDS011;76210;41.986;21.462;2024-03-23T06:43:18;29.48;;;20.48;;
85769;SDS011;76210;41.986;21.462;2024-03-23T06:45:44;32.63;;;21.07;;
85769;SDS011;76210;41.986;21.462;2024-03-23T06:48:09;33.40;;;20.67;;
85769;SDS011;76210;41.986;21.462;2024-03-23T06:50:34;28.90;;;19.85;;
85769;SDS011;76210;41.986;21.462;2024-03-23T06:53:00;27.50;;;19.55;;
85769;SDS011;76210;41.986;21.462;2024-03-23T06:55:27;29.65;;;19.65;;
85769;SDS011;76210;41.986;21.462;2024-03-23T06:57:52;22.65;;;17.30;;
85769;SDS011;76210;41.986;21.462;2024-03-23T07:00:18;25.58;;;18.70;;
85769;SDS011;76210;41.986;21.462;2024-03-23T07:02:43;25.08;;;18.23;;
85769;SDS011;76210;41.986;21.462;2024-03-23T07:05:09;26.95;;;19.50;;
85769;SDS011;76210;41.986;21.462;2024-03-23T07:07:34;28.42;;;18.45;;
85769;SDS011;76210;41.986;21.462;2024-03-23T07:10:00;25.02;;;18.67;;
85769;SDS011;76210;41.986;21.462;2024-03-23T07:12:25;27.65;;;19.92;;
85769;SDS011;76210;41.986;21.462;2024-03-23T07:14:50;26.60;;;18.95;;
85769;SDS011;76210;41.986;21.462;2024-03-23T07:17:15;26.63;;;19.00;;
85769;SDS011;76210;41.986;21.462;2024-03-23T07:19:43;24.55;;;18.90;;
85769;SDS011;76210;41.986;21.462;2024-03-23T07:22:08;23.95;;;18.40;;
85769;SDS011;76210;41.986;21.462;2024-03-23T07:24:34;26.30;;;18.58;;
85769;SDS011;76210;41.986;21.462;2024-03-23T07:26:59;26.85;;;19.40;;
85769;SDS011;76210;41.986;21.462;2024-03-23T07:29:24;27.77;;;21.15;;
85769;SDS011;76210;41.986;21.462;2024-03-23T07:31:50;30.08;;;20.75;;
85769;SDS011;76210;41.986;21.462;2024-03-23T07:34:15;27.88;;;20.08;;
85769;SDS011;76210;41.986;21.462;2024-03-23T07:36:40;25.52;;;17.90;;
85769;SDS011;76210;41.986;21.462;2024-03-23T07:39:05;26.63;;;18.15;;
85769;SDS011;76210;41.986;21.462;2024-03-23T07:41:32;21.00;;;16.35;;
85769;SDS011;76210;41.986;21.462;2024-03-23T07:43:58;23.63;;;16.75;;
85769;SDS011;76210;41.986;21.462;2024-03-23T07:46:23;19.33;;;15.40;;
85769;SDS011;76210;41.986;21.462;2024-03-23T07:48:50;21.20;;;16.20;;
85769;SDS011;76210;41.986;21.462;2024-03-23T07:51:16;22.98;;;15.82;;
85769;SDS011;76210;41.986;21.462;2024-03-23T07:53:43;21.10;;;15.60;;
85769;SDS011;76210;41.986;21.462;2024-03-23T07:56:08;18.45;;;14.75;;
85769;SDS011;76210;41.986;21.462;2024-03-23T07:58:36;18.85;;;13.45;;
85769;SDS011;76210;41.986;21.462;2024-03-23T08:03:30;14.43;;;12.55;;
85769;SDS011;76210;41.986;21.462;2024-03-23T08:05:56;17.05;;;14.02;;
85769;SDS011;76210;41.986;21.462;2024-03-23T08:08:21;16.25;;;14.27;;
85769;SDS011;76210;41.986;21.462;2024-03-23T08:10:47;18.33;;;14.50;;
85769;SDS011;76210;41.986;21.462;2024-03-23T08:13:12;16.13;;;13.30;;
85769;SDS011;76210;41.986;21.462;2024-03-23T08:15:38;15.75;;;13.30;;
85769;SDS011;76210;41.986;21.462;2024-03-23T08:18:03;16.92;;;13.48;;
85769;SDS011;76210;41.986;21.462;2024-03-23T08:20:29;15.05;;;12.80;;
85769;SDS011;76210;41.986;21.462;2024-03-23T08:22:54;14.63;;;12.80;;
85769;SDS011;76210;41.986;21.462;2024-03-23T08:25:20;16.07;;;13.03;;
85769;SDS011;76210;41.986;21.462;2024-03-23T08:27:45;15.25;;;12.50;;
85769;SDS011;76210;41.986;21.462;2024-03-23T08:30:10;17.13;;;14.27;;
85769;SDS011;76210;41.986;21.462;2024-03-23T08:32:36;16.48;;;13.45;;
85769;SDS011;76210;41.986;21.462;2024-03-23T08:35:01;15.40;;;13.20;;
85769;SDS011;76210;41.986;21.462;2024-03-23T08:37:27;15.57;;;12.95;;
85769;SDS011;76210;41.986;21.462;2024-03-23T08:39:52;16.45;;;13.00;;
85769;SDS011;76210;41.986;21.462;2024-03-23T08:42:17;16.20;;;13.65;;
85769;SDS011;76210;41.986;21.462;2024-03-23T08:44:43;14.52;;;12.60;;
85769;SDS011;76210;41.986;21.462;2024-03-23T08:47:11;16.15;;;13.45;;
85769;SDS011;76210;41.986;21.462;2024-03-23T08:49:36;14.98;;;13.38;;
85769;SDS011;76210;41.986;21.462;2024-03-23T08:52:02;17.73;;;13.53;;
85769;SDS011;76210;41.986;21.462;2024-03-23T08:54:27;14.02;;;12.55;;
85769;SDS011;76210;41.986;21.462;2024-03-23T08:56:54;15.30;;;13.25;;
85769;SDS011;76210;41.986;21.462;2024-03-23T08:59:19;14.82;;;13.25;;
85769;SDS011;76210;41.986;21.462;2024-03-23T09:01:45;15.05;;;13.38;;
85769;SDS011;76210;41.986;21.462;2024-03-23T09:04:10;14.10;;;12.65;;
85769;SDS011;76210;41.986;21.462;2024-03-23T09:06:35;14.53;;;13.03;;
85769;SDS011;76210;41.986;21.462;2024-03-23T09:09:01;13.82;;;12.35;;
85769;SDS011;76210;41.986;21.462;2024-03-23T09:11:26;14.95;;;12.93;;
85769;SDS011;76210;41.986;21.462;2024-03-23T09:13:52;17.13;;;12.77;;
85769;SDS011;76210;41.986;21.462;2024-03-23T09:16:17;14.07;;;11.52;;
85769;SDS011;76210;41.986;21.462;2024-03-23T09:18:43;15.45;;;12.93;;
85769;SDS011;76210;41.986;21.462;2024-03-23T09:21:11;15.80;;;12.75;;
85769;SDS011;76210;41.986;21.462;2024-03-23T09:23:38;13.48;;;11.40;;
85769;SDS011;76210;41.986;21.462;2024-03-23T09:26:03;14.70;;;11.85;;
85769;SDS011;76210;41.986;21.462;2024-03-23T09:28:29;13.23;;;11.82;;
85769;SDS011;76210;41.986;21.462;2024-03-23T09:31:03;14.35;;;10.95;;
85769;SDS011;76210;41.986;21.462;2024-03-23T09:33:28;12.80;;;11.25;;
85769;SDS011;76210;41.986;21.462;2024-03-23T09:35:54;16.33;;;12.55;;
85769;SDS011;76210;41.986;21.462;2024-03-23T09:38:20;13.35;;;11.55;;
85769;SDS011;76210;41.986;21.462;2024-03-23T09:40:45;14.48;;;11.13;;
85769;SDS011;76210;41.986;21.462;2024-03-23T09:43:12;13.00;;;11.52;;
85769;SDS011;76210;41.986;21.462;2024-03-23T09:45:40;13.52;;;12.02;;
85769;SDS011;76210;41.986;21.462;2024-03-23T09:48:09;13.30;;;11.57;;
85769;SDS011;76210;41.986;21.462;2024-03-23T09:50:38;13.20;;;11.60;;
85769;SDS011;76210;41.986;21.462;2024-03-23T09:53:04;14.35;;;11.68;;
85769;SDS011;76210;41.986;21.462;2024-03-23T09:55:29;13.27;;;11.48;;
85769;SDS011;76210;41.986;21.462;2024-03-23T09:57:54;13.50;;;11.07;;
85769;SDS011;76210;41.986;21.462;2024-03-23T10:00:20;12.27;;;10.93;;
85769;SDS011;76210;41.986;21.462;2024-03-23T10:02:45;13.48;;;10.73;;
85769;SDS011;76210;41.986;21.462;2024-03-23T10:05:23;12.07;;;10.50;;
85769;SDS011;76210;41.986;21.462;2024-03-23T10:07:51;14.45;;;11.13;;
85769;SDS011;76210;41.986;21.462;2024-03-23T10:10:17;13.15;;;11.63;;
85769;SDS011;76210;41.986;21.462;2024-03-23T10:12:46;12.13;;;10.93;;
85769;SDS011;76210;41.986;21.462;2024-03-23T10:15:18;14.65;;;10.52;;
85769;SDS011;76210;41.986;21.462;2024-03-23T10:17:43;11.45;;;9.85;;
85769;SDS011;76210;41.986;21.462;2024-03-23T10:20:10;11.60;;;9.60;;
85769;SDS011;76210;41.986;21.462;2024-03-23T10:22:37;14.38;;;11.00;;
85769;SDS011;76210;41.986;21.462;2024-03-23T10:25:09;13.05;;;10.93;;
85769;SDS011;76210;41.986;21.462;2024-03-23T10:27:35;12.55;;;10.55;;
85769;SDS011;76210;41.986;21.462;2024-03-23T10:30:10;11.55;;;10.15;;
85769;SDS011;76210;41.986;21.462;2024-03-23T10:32:36;11.93;;;10.38;;
85769;SDS011;76210;41.986;21.462;2024-03-23T10:35:18;13.20;;;10.25;;
85769;SDS011;76210;41.986;21.462;2024-03-23T10:37:49;12.07;;;10.25;;
85769;SDS011;76210;41.986;21.462;2024-03-23T10:40:16;15.05;;;10.10;;
85769;SDS011;76210;41.986;21.462;2024-03-23T10:42:43;15.00;;;10.63;;
85769;SDS011;76210;41.986;21.462;2024-03-23T10:45:08;12.00;;;10.05;;
85769;SDS011;76210;41.986;21.462;2024-03-23T10:47:34;11.48;;;9.85;;
85769;SDS011;76210;41.986;21.462;2024-03-23T10:50:00;13.45;;;9.55;;
85769;SDS011;76210;41.986;21.462;2024-03-23T10:52:26;12.57;;;9.68;;
85769;SDS011;76210;41.986;21.462;2024-03-23T10:54:51;11.68;;;9.48;;
85769;SDS011;76210;41.986;21.462;2024-03-23T10:57:21;13.05;;;9.63;;
85769;SDS011;76210;41.986;21.462;2024-03-23T10:59:48;12.35;;;9.35;;
85769;SDS011;76210;41.986;21.462;2024-03-23T11:02:22;11.13;;;8.80;;
85769;SDS011;76210;41.986;21.462;2024-03-23T11:04:48;11.55;;;9.27;;
85769;SDS011;76210;41.986;21.462;2024-03-23T11:07:29;10.32;;;8.38;;
85769;SDS011;76210;41.986;21.462;2024-03-23T11:09:55;11.38;;;8.73;;
85769;SDS011;76210;41.986;21.462;2024-03-23T11:14:53;10.23;;;8.73;;
85769;SDS011;76210;41.986;21.462;2024-03-23T11:17:19;11.02;;;8.43;;
85769;SDS011;76210;41.986;21.462;2024-03-23T11:19:44;9.00;;;7.95;;
85769;SDS011;76210;41.986;21.462;2024-03-23T11:22:17;8.43;;;7.13;;
85769;SDS011;76210;41.986;21.462;2024-03-23T11:27:40;10.15;;;7.75;;
85769;SDS011;76210;41.986;21.462;2024-03-23T11:32:37;8.75;;;7.25;;
85769;SDS011;76210;41.986;21.462;2024-03-23T11:35:02;8.45;;;6.57;;
85769;SDS011;76210;41.986;21.462;2024-03-23T11:37:27;11.30;;;7.53;;
85769;SDS011;76210;41.986;21.462;2024-03-23T11:39:53;11.55;;;6.97;;
85769;SDS011;76210;41.986;21.462;2024-03-23T11:42:18;9.13;;;6.30;;
85769;SDS011;76210;41.986;21.462;2024-03-23T11:44:44;8.88;;;7.00;;
85769;SDS011;76210;41.986;21.462;2024-03-23T11:47:09;9.68;;;6.78;;
85769;SDS011;76210;41.986;21.462;2024-03-23T11:49:35;9.88;;;6.95;;
85769;SDS011;76210;41.986;21.462;2024-03-23T11:52:05;9.55;;;7.55;;
85769;SDS011;76210;41.986;21.462;2024-03-23T11:54:31;10.63;;;7.00;;
85769;SDS011;76210;41.986;21.462;2024-03-23T11:57:00;11.20;;;6.75;;
85769;SDS011;76210;41.986;21.462;2024-03-23T12:01:56;8.50;;;5.70;;
85769;SDS011;76210;41.986;21.462;2024-03-23T12:04:28;8.52;;;5.80;;
85769;SDS011;76210;41.986;21.462;2024-03-23T12:09:38;7.40;;;4.68;;
85769;SDS011;76210;41.986;21.462;2024-03-23T12:12:16;5.78;;;4.57;;
85769;SDS011;76210;41.986;21.462;2024-03-23T12:14:42;8.48;;;5.00;;
85769;SDS011;76210;41.986;21.462;2024-03-23T12:17:08;17.58;;;11.52;;
85769;SDS011;76210;41.986;21.462;2024-03-23T12:19:34;18.65;;;11.93;;
85769;SDS011;76210;41.986;21.462;2024-03-23T12:21:59;38.80;;;23.98;;
85769;SDS011;76210;41.986;21.462;2024-03-23T12:24:26;9.30;;;7.18;;
85769;SDS011;76210;41.986;21.462;2024-03-23T12:26:51;12.95;;;7.68;;
85769;SDS011;76210;41.986;21.462;2024-03-23T12:29:16;8.70;;;6.30;;
85769;SDS011;76210;41.986;21.462;2024-03-23T12:31:43;11.00;;;6.03;;
85769;SDS011;76210;41.986;21.462;2024-03-23T12:34:08;7.20;;;4.93;;
85769;SDS011;76210;41.986;21.462;2024-03-23T12:36:33;13.55;;;9.75;;
85769;SDS011;76210;41.986;21.462;2024-03-23T12:38:58;12.02;;;6.68;;
85769;SDS011;76210;41.986;21.462;2024-03-23T12:41:24;12.98;;;8.40;;
85769;SDS011;76210;41.986;21.462;2024-03-23T12:43:49;12.98;;;8.70;;
85769;SDS011;76210;41.986;21.462;2024-03-23T12:46:14;9.35;;;5.60;;
85769;SDS011;76210;41.986;21.462;2024-03-23T12:48:40;7.45;;;5.70;;
85769;SDS011;76210;41.986;21.462;2024-03-23T12:51:07;8.38;;;5.30;;
85769;SDS011;76210;41.986;21.462;2024-03-23T12:53:32;10.70;;;6.68;;
85769;SDS011;76210;41.986;21.462;2024-03-23T12:55:57;13.38;;;8.73;;
85769;SDS011;76210;41.986;21.462;2024-03-23T12:58:23;6.57;;;4.72;;
85769;SDS011;76210;41.986;21.462;2024-03-23T13:00:48;7.43;;;5.80;;
85769;SDS011;76210;41.986;21.462;2024-03-23T13:03:14;10.00;;;5.93;;
85769;SDS011;76210;41.986;21.462;2024-03-23T13:05:40;7.97;;;5.55;;
85769;SDS011;76210;41.986;21.462;2024-03-23T13:08:06;16.70;;;8.13;;
85769;SDS011;76210;41.986;21.462;2024-03-23T13:10:31;39.78;;;22.38;;
85769;SDS011;76210;41.986;21.462;2024-03-23T13:12:56;20.52;;;13.18;;
85769;SDS011;76210;41.986;21.462;2024-03-23T13:15:22;9.55;;;6.05;;
85769;SDS011;76210;41.986;21.462;2024-03-23T13:17:47;6.57;;;4.78;;
85769;SDS011;76210;41.986;21.462;2024-03-23T13:20:12;17.98;;;11.93;;
85769;SDS011;76210;41.986;21.462;2024-03-23T13:22:40;6.60;;;5.25;;
85769;SDS011;76210;41.986;21.462;2024-03-23T13:25:05;7.88;;;5.40;;
85769;SDS011;76210;41.986;21.462;2024-03-23T13:27:31;7.78;;;4.75;;
85769;SDS011;76210;41.986;21.462;2024-03-23T13:29:56;8.20;;;5.22;;
85769;SDS011;76210;41.986;21.462;2024-03-23T13:32:21;5.97;;;4.43;;
85769;SDS011;76210;41.986;21.462;2024-03-23T13:34:47;15.93;;;10.32;;
85769;SDS011;76210;41.986;21.462;2024-03-23T13:37:15;6.05;;;4.35;;
85769;SDS011;76210;41.986;21.462;2024-03-23T13:39:40;10.07;;;7.47;;
85769;SDS011;76210;41.986;21.462;2024-03-23T13:42:07;8.20;;;5.28;;
85769;SDS011;76210;41.986;21.462;2024-03-23T13:44:34;9.50;;;6.40;;
85769;SDS011;76210;41.986;21.462;2024-03-23T13:46:59;12.60;;;8.00;;
85769;SDS011;76210;41.986;21.462;2024-03-23T13:49:31;5.97;;;4.43;;
85769;SDS011;76210;41.986;21.462;2024-03-23T13:51:57;7.55;;;4.32;;
85769;SDS011;76210;41.986;21.462;2024-03-23T13:54:23;9.40;;;5.05;;
85769;SDS011;76210;41.986;21.462;2024-03-23T13:56:49;9.85;;;5.88;;
85769;SDS011;76210;41.986;21.462;2024-03-23T13:59:15;8.68;;;5.40;;
85769;SDS011;76210;41.986;21.462;2024-03-23T14:01:40;6.53;;;4.53;;
85769;SDS011;76210;41.986;21.462;2024-03-23T14:04:05;6.25;;;5.07;;
85769;SDS011;76210;41.986;21.462;2024-03-23T14:06:31;9.48;;;5.00;;
85769;SDS011;76210;41.986;21.462;2024-03-23T14:08:56;7.75;;;5.10;;
85769;SDS011;76210;41.986;21.462;2024-03-23T14:11:22;7.28;;;4.70;;
85769;SDS011;76210;41.986;21.462;2024-03-23T14:13:47;9.90;;;6.43;;
85769;SDS011;76210;41.986;21.462;2024-03-23T14:16:12;8.00;;;5.03;;
85769;SDS011;76210;41.986;21.462;2024-03-23T14:18:37;18.98;;;11.82;;
85769;SDS011;76210;41.986;21.462;2024-03-23T14:21:03;5.60;;;4.80;;
85769;SDS011;76210;41.986;21.462;2024-03-23T14:23:29;7.07;;;4.30;;
85769;SDS011;76210;41.986;21.462;2024-03-23T14:25:54;6.78;;;4.70;;
85769;SDS011;76210;41.986;21.462;2024-03-23T14:28:20;7.57;;;4.55;;
85769;SDS011;76210;41.986;21.462;2024-03-23T14:30:45;5.63;;;4.10;;
85769;SDS011;76210;41.986;21.462;2024-03-23T14:33:11;13.02;;;6.45;;
85769;SDS011;76210;41.986;21.462;2024-03-23T14:35:37;5.90;;;4.38;;
85769;SDS011;76210;41.986;21.462;2024-03-23T14:38:03;18.95;;;11.95;;
85769;SDS011;76210;41.986;21.462;2024-03-23T14:40:28;5.45;;;4.03;;
85769;SDS011;76210;41.986;21.462;2024-03-23T14:42:54;7.43;;;4.93;;
85769;SDS011;76210;41.986;21.462;2024-03-23T14:45:20;8.30;;;6.03;;
85769;SDS011;76210;41.986;21.462;2024-03-23T14:47:45;5.85;;;4.53;;
85769;SDS011;76210;41.986;21.462;2024-03-23T14:50:11;7.45;;;4.45;;
85769;SDS011;76210;41.986;21.462;2024-03-23T14:52:40;7.72;;;5.10;;
85769;SDS011;76210;41.986;21.462;2024-03-23T14:55:05;7.00;;;4.35;;
85769;SDS011;76210;41.986;21.462;2024-03-23T14:57:33;6.50;;;4.75;;
85769;SDS011;76210;41.986;21.462;2024-03-23T14:59:59;9.38;;;7.40;;
85769;SDS011;76210;41.986;21.462;2024-03-23T15:02:24;7.38;;;4.75;;
85769;SDS011;76210;41.986;21.462;2024-03-23T15:04:49;8.05;;;4.50;;
85769;SDS011;76210;41.986;21.462;2024-03-23T15:07:14;7.22;;;5.13;;
85769;SDS011;76210;41.986;21.462;2024-03-23T15:09:40;6.93;;;5.30;;
85769;SDS011;76210;41.986;21.462;2024-03-23T15:12:05;8.32;;;4.82;;
85769;SDS011;76210;41.986;21.462;2024-03-23T15:14:32;6.57;;;4.65;;
85769;SDS011;76210;41.986;21.462;2024-03-23T15:16:59;8.55;;;5.50;;
85769;SDS011;76210;41.986;21.462;2024-03-23T15:19:25;5.93;;;4.63;;